createdAt,value
2019-05-16T00:01:44.027Z,60.00
2019-05-16T00:04:12.502Z,60.20
2019-05-16T00:06:40.978Z,60.70
2019-05-16T00:09:09.422Z,62.00
2019-05-16T00:11:58.104Z,61.20
2019-05-16T00:14:28.173Z,61.90
2019-05-16T00:16:58.780Z,61.40
2019-05-16T00:19:28.751Z,62.50
2019-05-16T00:21:58.099Z,62.80
2019-05-16T00:24:29.003Z,63.60
2019-05-16T00:26:58.007Z,63.60
2019-05-16T00:29:27.738Z,63.70
2019-05-16T00:31:58.043Z,63.90
2019-05-16T00:34:27.942Z,64.50
2019-05-16T00:36:58.217Z,65.20
2019-05-16T00:39:28.094Z,65.80
2019-05-16T00:41:58.422Z,66.20
2019-05-16T00:44:28.145Z,66.90
2019-05-16T00:46:58.131Z,67.20
2019-05-16T00:49:28.059Z,68.70
2019-05-16T00:51:58.476Z,68.60
2019-05-16T00:54:27.798Z,69.40
2019-05-16T00:56:57.788Z,70.40
2019-05-16T00:59:27.659Z,71.00
2019-05-16T01:01:58.625Z,70.80
2019-05-16T01:04:28.727Z,71.10
2019-05-16T01:06:58.498Z,71.70
2019-05-16T01:09:28.251Z,72.10
2019-05-16T01:11:57.955Z,71.30
2019-05-16T01:14:28.255Z,72.20
2019-05-16T01:16:58.146Z,72.00
2019-05-16T01:19:27.819Z,72.60
2019-05-16T01:21:58.822Z,73.00
2019-05-16T01:24:26.623Z,72.00
2019-05-16T01:26:57.742Z,71.90
2019-05-16T01:29:28.073Z,73.20
2019-05-16T01:31:56.105Z,74.20
2019-05-16T01:34:24.585Z,74.70
2019-05-16T01:36:53.057Z,75.20
2019-05-16T01:39:21.605Z,76.00
2019-05-16T01:41:50.041Z,74.80
2019-05-16T01:44:18.508Z,74.70
2019-05-16T01:46:48.093Z,74.80
2019-05-16T01:49:18.698Z,74.80
2019-05-16T01:51:48.425Z,75.20
2019-05-16T01:54:17.996Z,76.50
2019-05-16T01:56:48.105Z,77.30
2019-05-16T01:59:18.142Z,77.10
2019-05-16T02:01:49.503Z,78.90
2019-05-16T02:04:18.465Z,79.20
2019-05-16T02:06:54.184Z,80.00
2019-05-16T02:09:18.929Z,80.60
2019-05-16T02:12:10.414Z,80.90
2019-05-16T02:14:38.745Z,81.50
2019-05-16T02:17:10.868Z,81.60
2019-05-16T02:19:38.517Z,80.30
2019-05-16T02:22:08.934Z,79.90
2019-05-16T02:24:38.785Z,80.00
2019-05-16T02:27:09.524Z,80.60
2019-05-16T02:29:39.971Z,80.90
2019-05-16T02:32:11.436Z,79.90
2019-05-16T03:08:07.590Z,78.90
2019-05-16T03:17:50.765Z,78.50
2019-05-16T03:37:14.327Z,89.00
2019-05-16T03:47:45.334Z,87.00
2019-05-16T04:01:02.579Z,86.40
2019-05-16T04:04:25.987Z,87.50
2019-05-16T04:10:35.210Z,86.70
2019-05-16T04:23:16.957Z,88.20
2019-05-16T04:25:52.611Z,88.20
2019-05-16T04:35:21.128Z,86.30
2019-05-16T04:54:45.689Z,91.20
2019-05-16T05:13:33.167Z,92.00
2019-05-16T05:16:05.028Z,92.90
2019-05-16T05:18:42.851Z,93.10
2019-05-16T05:21:25.031Z,93.10
2019-05-16T05:30:59.540Z,92.80
2019-05-16T05:37:20.489Z,92.80
2019-05-16T05:40:20.197Z,93.20
2019-05-16T05:43:25.500Z,92.50
2019-05-16T05:46:01.477Z,91.90
2019-05-16T05:52:23.612Z,90.70
2019-05-16T05:55:51.963Z,89.80
2019-05-16T06:07:30.366Z,82.70
2019-05-16T06:10:11.852Z,80.10
2019-05-16T06:15:47.637Z,77.90
2019-05-16T06:21:11.232Z,68.70
2019-05-16T06:26:50.463Z,66.70
2019-05-16T06:38:54.822Z,67.00
2019-05-16T06:41:31.638Z,65.50
2019-05-16T06:44:20.247Z,63.40
2019-05-16T06:54:00.520Z,60.40
2019-05-16T06:56:41.608Z,61.40
2019-05-16T06:59:22.306Z,59.60
2019-05-16T07:01:57.242Z,59.30
2019-05-16T07:04:56.680Z,59.40
2019-05-16T07:07:25.153Z,59.80
2019-05-16T07:10:27.472Z,60.00
2019-05-16T07:12:50.430Z,60.30
2019-05-16T07:18:10.826Z,60.30
2019-05-16T07:20:47.793Z,61.30
2019-05-16T07:23:59.757Z,62.20
2019-05-16T07:26:36.884Z,63.10
2019-05-16T07:29:11.954Z,64.20
2019-05-16T07:34:36.116Z,62.50
2019-05-16T07:50:12.399Z,56.80
2019-05-16T07:58:31.345Z,55.30
2019-05-16T08:01:07.801Z,55.60
2019-05-16T08:03:44.165Z,55.30
2019-05-16T08:06:24.430Z,54.70
2019-05-16T08:08:56.114Z,54.00
2019-05-16T08:11:29.864Z,53.00
2019-05-16T08:14:01.902Z,53.10
2019-05-16T08:16:40.846Z,52.80
2019-05-16T08:19:10.788Z,53.30
2019-05-16T08:21:41.138Z,52.40
2019-05-16T08:24:15.509Z,50.90
2019-05-16T08:26:47.612Z,50.90
2019-05-16T08:29:16.949Z,50.40
2019-05-16T08:31:45.738Z,49.30
2019-05-16T08:34:20.612Z,50.30
2019-05-16T08:36:51.935Z,48.40
2019-05-16T08:39:33.003Z,47.20
2019-05-16T08:42:08.122Z,47.90
2019-05-16T08:47:25.917Z,47.50
2019-05-16T08:49:56.611Z,42.90
2019-05-16T08:55:03.471Z,42.50
2019-05-16T08:57:41.131Z,43.40
2019-05-16T09:02:44.095Z,44.90
2019-05-16T09:05:14.045Z,45.40
2019-05-16T09:07:49.145Z,45.40
2019-05-16T09:10:30.561Z,43.10
2019-05-16T09:10:34.907Z,44.50
2019-05-16T09:12:50.072Z,45.60
2019-05-16T09:15:19.091Z,45.60
2019-05-16T09:17:51.167Z,44.70
2019-05-16T09:20:22.775Z,44.60
2019-05-16T09:22:53.371Z,45.70
2019-05-16T09:25:30.829Z,45.30
2019-05-16T09:28:02.917Z,45.70
2019-05-16T09:30:39.003Z,44.70
2019-05-16T09:33:11.117Z,45.30
2019-05-16T09:38:23.783Z,45.60
2019-05-16T09:40:52.511Z,45.60
2019-05-16T09:43:59.590Z,45.80
2019-05-16T09:46:30.042Z,46.20
2019-05-16T09:49:40.419Z,47.40
2019-05-16T09:52:26.927Z,47.60
2019-05-16T09:54:53.251Z,48.00
2019-05-16T09:57:40.313Z,46.80
2019-05-16T10:00:18.055Z,47.40
2019-05-16T10:05:52.184Z,47.70
2019-05-16T10:08:26.998Z,46.20
2019-05-16T10:11:02.014Z,45.60
2019-05-16T10:16:16.836Z,45.80
2019-05-16T10:18:47.586Z,46.20
2019-05-16T10:21:20.614Z,47.10
2019-05-16T10:23:48.594Z,45.70
2019-05-16T10:26:19.403Z,46.60
2019-05-16T10:28:50.588Z,44.90
2019-05-16T10:31:38.568Z,43.40
2019-05-16T10:33:58.093Z,43.50
2019-05-16T10:36:28.103Z,44.40
2019-05-16T10:38:59.123Z,42.50
2019-05-16T10:41:27.270Z,42.00
2019-05-16T10:43:56.814Z,42.20
2019-05-16T10:46:27.008Z,43.10
2019-05-16T10:48:57.767Z,40.20
2019-05-16T10:51:26.966Z,40.10
2019-05-16T10:54:08.938Z,38.50
2019-05-16T10:56:29.266Z,38.10
2019-05-16T10:59:35.040Z,39.60
2019-05-16T11:01:38.514Z,40.30
2019-05-16T11:04:07.621Z,38.60
2019-05-16T11:06:37.228Z,38.10
2019-05-16T11:09:11.192Z,38.20
2019-05-16T11:11:39.765Z,37.10
2019-05-16T11:14:11.688Z,37.50
2019-05-16T11:16:40.472Z,37.30
2019-05-16T11:19:17.920Z,36.30
2019-05-16T11:21:39.534Z,36.20
2019-05-16T11:24:12.938Z,35.40
2019-05-16T11:26:51.995Z,35.70
2019-05-16T11:29:25.386Z,35.40
2019-05-16T11:35:20.384Z,35.30
2019-05-16T11:37:51.920Z,36.30
2019-05-16T11:40:21.154Z,35.90
2019-05-16T11:43:05.480Z,35.40
2019-05-16T11:45:27.536Z,35.30
2019-05-16T11:55:01.232Z,36.20
2019-05-16T11:57:34.151Z,36.10
2019-05-16T12:00:32.162Z,38.90
2019-05-16T12:03:06.625Z,37.80
2019-05-16T12:08:48.088Z,37.20
2019-05-16T12:11:28.012Z,37.50
2019-05-16T12:17:36.352Z,36.30
2019-05-16T12:20:11.165Z,37.20
2019-05-16T12:22:39.716Z,37.00
2019-05-16T12:25:31.559Z,37.30
2019-05-16T12:28:00.079Z,36.10
2019-05-16T12:30:28.590Z,37.30
2019-05-16T12:32:58.199Z,37.40
2019-05-16T12:35:27.704Z,35.00
2019-05-16T12:37:57.039Z,36.20
2019-05-16T12:40:26.841Z,36.30
2019-05-16T12:42:57.295Z,36.10
2019-05-16T12:45:42.113Z,35.70
2019-05-16T12:47:59.634Z,35.80
2019-05-16T12:50:29.078Z,36.30
2019-05-16T12:52:58.032Z,37.70
2019-05-16T12:55:30.392Z,37.40
2019-05-16T12:58:12.653Z,37.70
2019-05-16T13:00:32.127Z,35.80
2019-05-16T13:03:00.979Z,36.40
2019-05-16T13:05:29.467Z,35.90
2019-05-16T13:07:57.941Z,35.40
2019-05-16T13:10:27.125Z,34.90
2019-05-16T13:12:58.014Z,34.70
2019-05-16T13:15:27.328Z,34.80
2019-05-16T13:18:09.394Z,35.70
2019-05-16T13:20:47.956Z,36.70
2019-05-16T13:23:18.275Z,37.10
2019-05-16T13:25:48.135Z,37.80
2019-05-16T13:28:17.106Z,38.60
2019-05-16T13:30:47.895Z,39.60
2019-05-16T13:33:17.717Z,39.90
2019-05-16T13:35:47.133Z,40.80
2019-05-16T13:38:17.403Z,42.90
2019-05-16T13:40:46.304Z,42.10
2019-05-16T13:43:17.256Z,42.10
2019-05-16T13:45:47.214Z,42.30
2019-05-16T13:48:39.741Z,42.30
2019-05-16T13:51:14.840Z,43.20
2019-05-16T13:53:38.523Z,42.30
2019-05-16T13:56:12.519Z,41.50
2019-05-16T13:58:37.601Z,42.90
2019-05-16T14:01:07.822Z,44.00
2019-05-16T14:03:38.006Z,43.00
2019-05-16T14:06:07.236Z,43.30
2019-05-16T14:08:37.360Z,43.80
2019-05-16T14:11:10.214Z,42.90
2019-05-16T14:13:37.670Z,43.50
2019-05-16T14:16:07.235Z,42.80
2019-05-16T14:18:43.265Z,42.90
2019-05-16T14:21:09.337Z,42.70
2019-05-16T14:23:40.918Z,43.30
2019-05-16T14:26:09.465Z,44.50
2019-05-16T14:28:39.750Z,44.00
2019-05-16T14:31:08.711Z,44.00
2019-05-16T14:33:37.308Z,44.60
2019-05-16T14:36:07.424Z,44.60
2019-05-16T14:44:53.294Z,45.50
2019-05-16T14:47:07.013Z,46.60
2019-05-16T14:49:43.561Z,47.30
2019-05-16T14:52:21.139Z,48.10
2019-05-16T14:54:49.918Z,48.10
2019-05-16T14:57:18.618Z,47.80
2019-05-16T15:00:00.947Z,48.40
2019-05-16T15:03:07.917Z,48.80
2019-05-16T15:05:42.509Z,49.50
2019-05-16T15:08:18.984Z,49.70
2019-05-16T15:10:51.944Z,49.70
2019-05-16T15:13:20.694Z,50.70
2019-05-16T15:15:56.939Z,50.20
2019-05-16T15:21:26.586Z,50.80
2019-05-16T15:23:59.363Z,51.30
2019-05-16T15:26:27.233Z,51.00
2019-05-16T15:28:58.887Z,51.00
2019-05-16T15:31:39.494Z,51.90
2019-05-16T15:34:17.755Z,51.80
2019-05-16T15:36:47.782Z,52.00
2019-05-16T15:39:17.065Z,52.30
2019-05-16T15:42:01.080Z,52.30
2019-05-16T15:44:29.895Z,52.20
2019-05-16T15:47:03.033Z,51.20
2019-05-16T15:49:33.214Z,51.30
2019-05-16T15:52:07.351Z,51.80
2019-05-16T15:58:09.780Z,52.30
2019-05-16T16:00:43.016Z,53.50
2019-05-16T16:03:12.684Z,53.80
2019-05-16T16:05:41.311Z,53.70
2019-05-16T16:08:17.862Z,53.90
2019-05-16T16:11:07.326Z,53.90
2019-05-16T16:13:37.369Z,54.30
2019-05-16T16:16:10.030Z,54.10
2019-05-16T16:18:37.657Z,55.00
2019-05-16T16:21:12.642Z,55.60
2019-05-16T16:23:41.216Z,55.50
2019-05-16T16:26:11.620Z,55.90
2019-05-16T16:28:40.116Z,55.20
2019-05-16T16:31:08.569Z,55.40
2019-05-16T16:33:37.628Z,55.60
2019-05-16T16:36:07.810Z,55.80
2019-05-16T16:38:39.249Z,56.00
2019-05-16T16:41:09.903Z,56.40
2019-05-16T16:43:41.228Z,56.00
2019-05-16T16:46:13.441Z,56.10
2019-05-16T16:48:40.130Z,56.00
2019-05-16T16:51:08.753Z,56.00
2019-05-16T16:53:37.961Z,56.50
2019-05-16T16:56:09.972Z,56.40
2019-05-16T16:58:38.431Z,56.70
2019-05-16T17:01:07.479Z,57.60
2019-05-16T17:03:36.472Z,57.50
2019-05-16T17:06:07.171Z,57.80
2019-05-16T17:08:37.383Z,58.00
2019-05-16T17:11:10.766Z,57.80
2019-05-16T17:13:39.902Z,58.10
2019-05-16T17:16:22.011Z,58.00
2019-05-16T17:18:57.854Z,58.00
2019-05-16T17:21:30.554Z,58.30
2019-05-16T17:24:00.570Z,58.00
2019-05-16T17:26:33.360Z,58.60
2019-05-16T17:29:21.982Z,59.50
2019-05-16T17:31:56.032Z,59.50
2019-05-16T17:34:26.705Z,59.30
2019-05-16T17:37:13.741Z,59.60
2019-05-16T17:39:58.743Z,58.40
2019-05-16T17:42:28.109Z,58.90
2019-05-16T17:44:56.702Z,59.30
2019-05-16T17:47:36.875Z,59.30
2019-05-16T17:51:17.570Z,59.60
2019-05-16T17:53:46.525Z,59.10
2019-05-16T17:56:27.285Z,59.00
2019-05-16T17:59:11.221Z,59.30
2019-05-16T18:01:46.210Z,59.90
2019-05-16T18:04:22.519Z,59.90
2019-05-16T18:06:57.556Z,61.40
2019-05-16T18:09:27.812Z,61.50
2019-05-16T18:12:08.554Z,60.70
2019-05-16T18:14:52.061Z,60.90
2019-05-16T18:17:26.897Z,60.90
2019-05-16T18:23:03.901Z,61.10
2019-05-16T18:25:36.524Z,61.80
2019-05-16T18:28:12.126Z,63.00
2019-05-16T18:34:00.798Z,61.70
2019-05-16T18:37:38.093Z,61.00
2019-05-16T18:39:15.221Z,60.80
2019-05-16T18:41:47.178Z,61.50
2019-05-16T18:44:28.672Z,61.30
2019-05-16T18:47:21.484Z,61.30
2019-05-16T18:50:22.166Z,62.00
2019-05-16T18:53:01.743Z,61.90
2019-05-16T18:58:57.190Z,62.50
2019-05-16T19:01:46.953Z,62.50
2019-05-16T19:04:41.618Z,61.60
2019-05-16T19:07:07.970Z,61.60
2019-05-16T19:16:16.966Z,62.50
2019-05-16T19:21:50.770Z,63.10
2019-05-16T19:33:12.400Z,64.90
2019-05-16T19:35:43.576Z,65.00
2019-05-16T19:38:26.548Z,65.30
2019-05-16T19:41:22.146Z,66.40
2019-05-16T19:43:51.213Z,67.00
2019-05-16T19:46:19.670Z,68.00
2019-05-16T19:48:50.980Z,68.60
2019-05-16T19:51:19.588Z,68.70
2019-05-16T19:53:56.439Z,69.10
2019-05-16T19:57:14.221Z,69.80
2019-05-16T19:58:59.658Z,70.00
2019-05-16T20:01:28.498Z,70.70
2019-05-16T20:04:03.236Z,71.10
2019-05-16T20:06:43.680Z,72.10
2019-05-16T20:09:52.510Z,72.60
2019-05-16T20:12:21.326Z,73.00
2019-05-16T20:14:49.928Z,73.00
2019-05-16T20:23:56.759Z,74.40
2019-05-16T20:26:27.333Z,75.60
2019-05-16T20:28:59.539Z,76.50
2019-05-16T20:31:27.877Z,77.60
2019-05-16T20:34:51.466Z,80.00
2019-05-16T20:37:22.904Z,84.20
2019-05-16T20:39:51.787Z,88.70
2019-05-16T20:42:20.832Z,91.40
2019-05-16T20:44:54.042Z,92.80
2019-05-16T20:57:43.310Z,98.90
2019-05-16T21:04:22.375Z,99.90
2019-05-16T21:16:33.404Z,99.90
2019-05-16T21:19:10.881Z,99.90
2019-05-16T21:36:07.203Z,99.90
2019-05-16T21:39:14.358Z,99.90
2019-05-16T21:44:59.343Z,99.90
2019-05-16T22:13:59.340Z,99.90
2019-05-16T22:16:33.162Z,99.90
2019-05-16T22:29:40.581Z,99.90
2019-05-16T22:32:09.374Z,99.90
2019-05-16T22:34:37.921Z,99.90
2019-05-16T22:37:17.690Z,99.90
2019-05-16T22:39:46.411Z,99.90
2019-05-16T22:42:28.516Z,99.90
2019-05-16T22:45:01.789Z,99.90
2019-05-16T22:47:30.267Z,99.90
2019-05-16T22:50:07.432Z,99.90
2019-05-16T22:52:36.772Z,99.90
2019-05-16T22:55:09.964Z,99.90
2019-05-16T22:58:21.726Z,99.90
2019-05-16T23:04:56.814Z,99.90
2019-05-16T23:10:38.118Z,99.90
2019-05-16T23:13:43.258Z,99.90
2019-05-16T23:36:17.509Z,99.90
2019-05-16T23:46:00.258Z,99.90
2019-05-16T23:48:33.621Z,99.90
